Time;durP1;ratioP1;P1;durP2;ratioP2;P2;SDS_P1;SDS_P2;PMS_P1;PMS_P2;Temp;Humidity;BMP_temperature;BMP_pressure;BME280_temperature;BME280_humidity;BME280_pressure;Samples;Min_cycle;Max_cycle;Signal;HPM_P1;HPM_P2
2021/06/04 00:00:01;;;;;;;0.43;0.43;;;19.80;99.90;;;;;;5054494;28;20627;-80
2021/06/04 00:02:26;;;;;;;0.30;0.30;;;19.80;99.90;;;;;;5053105;28;20189;-80
2021/06/04 00:04:52;;;;;;;0.20;0.20;;;19.90;99.90;;;;;;5042650;28;20179;-79
2021/06/04 00:07:17;;;;;;;0.30;0.30;;;19.90;99.90;;;;;;5044676;28;20262;-80
2021/06/04 00:09:43;;;;;;;0.40;0.40;;;19.80;99.90;;;;;;5052484;28;20695;-80
2021/06/04 00:12:09;;;;;;;0.93;0.50;;;19.80;99.90;;;;;;5053127;28;20189;-80
2021/06/04 00:14:39;;;;;;;0.30;0.30;;;19.60;99.90;;;;;;5054202;28;20189;-79
2021/06/04 00:17:16;;;;;;;0.40;0.30;;;19.50;99.90;;;;;;5053828;28;20189;-80
2021/06/04 00:19:43;;;;;;;0.63;0.63;;;19.20;99.90;;;;;;5044939;28;20268;-80
2021/06/04 00:22:16;;;;;;;0.30;0.30;;;19.00;99.90;;;;;;5040640;28;20190;-80
2021/06/04 00:24:43;;;;;;;0.57;0.57;;;18.80;99.90;;;;;;5050496;28;20544;-80
2021/06/04 00:27:11;;;;;;;0.93;0.70;;;18.70;99.90;;;;;;5053687;28;20189;-80
2021/06/04 00:29:37;;;;;;;0.23;0.23;;;18.70;99.90;;;;;;5050595;28;20217;-80
2021/06/04 00:32:05;;;;;;;0.43;0.33;;;18.70;99.90;;;;;;5051584;28;20197;-80
2021/06/04 00:34:31;;;;;;;0.30;0.30;;;18.60;99.90;;;;;;5049965;28;20182;-80
2021/06/04 00:36:57;;;;;;;0.20;0.20;;;18.50;99.90;;;;;;5053804;28;20188;-80
2021/06/04 00:39:25;;;;;;;0.37;0.37;;;18.40;99.90;;;;;;5049192;28;20202;-80
2021/06/04 00:42:19;;;;;;;0.30;0.30;;;18.30;99.90;;;;;;5047502;28;20280;-79
2021/06/04 00:44:48;;;;;;;0.50;0.50;;;18.20;99.90;;;;;;5048653;28;20195;-79
2021/06/04 00:47:14;;;;;;;0.57;0.57;;;18.10;99.90;;;;;;5052248;28;20196;-80
2021/06/04 00:49:40;;;;;;;0.30;0.30;;;18.10;99.90;;;;;;5050346;28;20217;-79
2021/06/04 00:52:11;;;;;;;0.30;0.30;;;18.00;99.90;;;;;;5050311;28;20556;-79
2021/06/04 00:54:37;;;;;;;0.40;0.40;;;18.10;99.90;;;;;;5044703;28;20213;-80
2021/06/04 00:57:04;;;;;;;0.10;0.10;;;18.10;99.90;;;;;;5052305;28;20268;-80
2021/06/04 00:59:36;;;;;;;0.63;0.63;;;18.10;99.90;;;;;;5051948;28;20197;-79
2021/06/04 01:02:05;;;;;;;0.30;0.30;;;18.00;99.90;;;;;;5050583;28;20187;-80
2021/06/04 01:04:31;;;;;;;0.20;0.20;;;18.10;99.90;;;;;;5047363;28;20602;-80
2021/06/04 01:07:08;;;;;;;0.40;0.40;;;18.10;99.90;;;;;;5050656;28;20308;-80
2021/06/04 01:09:34;;;;;;;0.43;0.30;;;18.10;99.90;;;;;;5046568;28;20216;-79
2021/06/04 01:12:11;;;;;;;0.67;0.67;;;18.10;99.90;;;;;;5044835;28;20185;-80
2021/06/04 01:14:59;;;;;;;0.30;0.30;;;18.10;99.90;;;;;;5044741;28;20557;-80
2021/06/04 01:17:37;;;;;;;0.30;0.30;;;18.20;99.90;;;;;;5052320;28;22162;-80
2021/06/04 01:20:15;;;;;;;0.30;0.30;;;18.50;99.90;;;;;;5047517;28;20300;-80
2021/06/04 01:23:14;;;;;;;0.17;0.17;;;18.70;99.90;;;;;;5048829;28;20174;-81
2021/06/04 01:26:00;;;;;;;0.13;0.13;;;19.00;99.90;;;;;;5052545;28;20186;-80
2021/06/04 01:28:32;;;;;;;0.27;0.27;;;19.20;99.90;;;;;;5051159;28;20206;-80
2021/06/04 01:31:10;;;;;;;0.23;0.23;;;19.30;99.90;;;;;;5047074;28;20186;-78
2021/06/04 01:33:43;;;;;;;0.30;0.30;;;19.40;99.90;;;;;;5050156;28;20268;-80
2021/06/04 01:36:10;;;;;;;0.50;0.47;;;19.50;99.90;;;;;;5050636;28;20663;-78
2021/06/04 01:38:40;;;;;;;0.20;0.20;;;19.50;99.90;;;;;;5051729;28;20275;-80
2021/06/04 01:41:10;;;;;;;0.63;0.63;;;19.60;99.90;;;;;;5044095;28;20632;-80
2021/06/04 01:43:46;;;;;;;0.27;0.27;;;19.60;99.90;;;;;;5051466;28;20182;-80
2021/06/04 01:46:47;;;;;;;0.40;0.40;;;19.60;99.90;;;;;;5047558;28;20185;-80
2021/06/04 01:49:20;;;;;;;0.40;0.40;;;19.40;99.90;;;;;;5024736;28;20697;-80
2021/06/04 01:51:55;;;;;;;0.40;0.40;;;19.30;99.90;;;;;;5045922;28;20181;-81
2021/06/04 01:54:46;;;;;;;0.77;0.50;;;19.10;99.90;;;;;;5048354;28;20190;-80
2021/06/04 01:57:25;;;;;;;0.50;0.50;;;18.80;99.90;;;;;;5044950;28;20221;-81
2021/06/04 01:59:52;;;;;;;0.27;0.27;;;18.50;99.90;;;;;;5050239;28;20201;-80
2021/06/04 02:02:21;;;;;;;0.30;0.30;;;18.50;99.90;;;;;;5044058;28;20272;-80
2021/06/04 02:04:53;;;;;;;0.57;0.57;;;18.50;99.90;;;;;;5048186;28;20183;-80
2021/06/04 02:07:30;;;;;;;0.30;0.30;;;18.40;99.90;;;;;;5043026;28;20781;-81
2021/06/04 02:09:58;;;;;;;0.27;0.27;;;18.30;99.90;;;;;;5045958;28;20571;-80
2021/06/04 02:12:25;;;;;;;0.30;0.30;;;18.20;99.90;;;;;;5043940;28;20182;-80
2021/06/04 02:14:56;;;;;;;0.40;0.40;;;18.20;99.90;;;;;;5048254;28;20199;-81
2021/06/04 02:17:53;;;;;;;0.20;0.20;;;18.00;99.90;;;;;;5062369;28;20625;-81
2021/06/04 02:20:34;;;;;;;0.30;0.30;;;18.00;99.90;;;;;;5042658;28;20240;-81
2021/06/04 02:23:18;;;;;;;0.57;0.40;;;17.90;99.90;;;;;;5046848;28;20175;-80
2021/06/04 02:25:55;;;;;;;0.30;0.30;;;17.90;99.90;;;;;;5048733;28;20189;-80
2021/06/04 02:28:33;;;;;;;0.30;0.30;;;17.80;99.90;;;;;;5050122;28;20177;-80
2021/06/04 02:31:20;;;;;;;0.20;0.20;;;17.80;99.90;;;;;;5048578;28;20197;-81
2021/06/04 02:34:15;;;;;;;0.30;0.30;;;17.80;99.90;;;;;;5050602;28;20189;-80
2021/06/04 02:36:45;;;;;;;0.30;0.30;;;18.00;99.90;;;;;;5045514;28;20560;-81
2021/06/04 02:39:16;;;;;;;0.20;0.20;;;18.00;99.90;;;;;;5049876;28;20374;-81
2021/06/04 02:41:47;;;;;;;0.23;0.23;;;18.00;99.90;;;;;;5039913;28;20273;-80
2021/06/04 02:44:25;;;;;;;0.77;0.27;;;18.20;99.90;;;;;;5049147;28;20182;-81
2021/06/04 02:46:56;;;;;;;0.23;0.23;;;18.40;99.90;;;;;;5047340;28;20226;-84
2021/06/04 02:49:23;;;;;;;0.10;0.10;;;18.50;99.90;;;;;;5047559;28;20268;-80
2021/06/04 02:52:08;;;;;;;0.57;0.57;;;18.50;99.90;;;;;;5044407;28;20227;-79
2021/06/04 02:54:36;;;;;;;0.20;0.20;;;18.50;99.90;;;;;;5041593;28;20194;-81
2021/06/04 02:57:07;;;;;;;0.17;0.17;;;18.50;99.90;;;;;;5046819;28;20193;-81
2021/06/04 02:59:42;;;;;;;0.10;0.10;;;18.70;99.90;;;;;;5044256;28;20217;-82
2021/06/04 03:02:25;;;;;;;0.30;0.30;;;18.90;99.90;;;;;;5037710;28;20197;-80
2021/06/04 03:05:01;;;;;;;0.63;0.40;;;19.00;99.90;;;;;;5043596;28;20189;-81
2021/06/04 03:07:33;;;;;;;0.23;0.23;;;19.00;99.90;;;;;;5044943;28;20316;-81
2021/06/04 03:10:02;;;;;;;0.30;0.30;;;19.10;99.90;;;;;;5045364;28;20740;-81
2021/06/04 03:12:37;;;;;;;0.10;0.10;;;19.20;99.90;;;;;;5047785;28;20683;-84
2021/06/04 03:15:08;;;;;;;0.10;0.10;;;19.30;99.90;;;;;;5047773;28;20189;-84
2021/06/04 03:17:36;;;;;;;0.30;0.27;;;19.40;99.90;;;;;;5056258;28;20700;-84
2021/06/04 03:20:06;;;;;;;0.37;0.37;;;19.50;99.90;;;;;;5048414;28;20226;-82
2021/06/04 03:22:40;;;;;;;0.30;0.30;;;19.50;99.90;;;;;;5049437;28;20186;-82
2021/06/04 03:25:32;;;;;;;0.50;0.50;;;19.60;99.90;;;;;;5046583;28;20185;-81
2021/06/04 03:27:58;;;;;;;0.67;0.57;;;19.60;99.90;;;;;;5042548;28;20189;-81
2021/06/04 03:30:28;;;;;;;0.20;0.20;;;19.60;99.90;;;;;;5046707;28;20682;-81
2021/06/04 03:32:54;;;;;;;0.30;0.30;;;19.60;99.90;;;;;;5049653;28;20189;-81
2021/06/04 03:35:22;;;;;;;0.43;0.43;;;19.60;99.90;;;;;;5047157;28;20300;-81
2021/06/04 03:37:48;;;;;;;0.50;0.40;;;19.50;99.90;;;;;;5051753;28;20275;-81
2021/06/04 03:40:17;;;;;;;1.93;0.97;;;19.50;99.90;;;;;;5052248;28;20209;-81
2021/06/04 03:42:43;;;;;;;0.30;0.30;;;19.50;99.90;;;;;;5053995;28;20755;-81
2021/06/04 03:45:12;;;;;;;0.40;0.40;;;19.50;99.90;;;;;;5051783;28;20201;-81
2021/06/04 03:47:37;;;;;;;0.20;0.20;;;19.50;99.90;;;;;;5067036;28;20227;-81
2021/06/04 03:50:06;;;;;;;0.33;0.33;;;19.50;99.90;;;;;;5053290;28;20217;-81
2021/06/04 03:52:32;;;;;;;0.60;0.60;;;19.50;99.90;;;;;;5052461;28;20182;-81
2021/06/04 03:54:59;;;;;;;2.00;0.97;;;19.50;99.90;;;;;;5054748;28;20232;-81
2021/06/04 03:57:31;;;;;;;0.30;0.30;;;19.50;99.90;;;;;;5046624;28;20237;-81
2021/06/04 03:59:57;;;;;;;0.33;0.33;;;19.50;99.90;;;;;;5053640;28;20199;-81
2021/06/04 04:02:25;;;;;;;0.30;0.30;;;19.50;99.90;;;;;;5054018;28;20178;-81
2021/06/04 04:04:56;;;;;;;0.80;0.50;;;19.60;99.90;;;;;;5046073;28;20186;-81
2021/06/04 04:07:23;;;;;;;0.50;0.50;;;19.70;99.90;;;;;;5046508;28;20187;-81
2021/06/04 04:09:48;;;;;;;0.40;0.40;;;19.80;99.90;;;;;;5053811;28;20213;-80
2021/06/04 04:12:14;;;;;;;0.50;0.50;;;20.80;99.90;;;;;;5053736;28;20196;-79
2021/06/04 04:14:40;;;;;;;0.77;0.57;;;22.20;99.90;;;;;;5054995;28;20186;-81
2021/06/04 04:17:06;;;;;;;0.23;0.23;;;22.70;99.90;;;;;;5050327;28;20219;-81
2021/06/04 04:19:31;;;;;;;0.70;0.40;;;22.40;99.90;;;;;;5054255;28;20242;-81
2021/06/04 04:21:58;;;;;;;0.47;0.37;;;22.40;99.90;;;;;;5050871;28;20210;-82
2021/06/04 04:24:28;;;;;;;0.47;0.47;;;22.90;99.90;;;;;;5053250;28;20273;-80
2021/06/04 04:26:55;;;;;;;0.60;0.60;;;22.10;99.90;;;;;;5044429;28;20273;-81
2021/06/04 04:29:21;;;;;;;0.33;0.33;;;21.60;99.90;;;;;;5045235;28;20263;-81
2021/06/04 04:31:50;;;;;;;0.30;0.30;;;21.30;99.90;;;;;;5044013;28;20232;-81
2021/06/04 04:34:16;;;;;;;1.53;0.70;;;21.00;99.90;;;;;;5055098;28;20212;-81
2021/06/04 04:36:48;;;;;;;0.50;0.50;;;20.80;99.90;;;;;;5048740;28;20272;-81
2021/06/04 04:39:17;;;;;;;2.43;0.53;;;20.80;99.90;;;;;;5049161;28;20209;-83
2021/06/04 04:41:44;;;;;;;0.60;0.60;;;20.60;99.90;;;;;;5042168;28;20247;-81
2021/06/04 04:44:10;;;;;;;2.40;0.73;;;20.60;99.90;;;;;;5051579;28;20186;-81
2021/06/04 04:46:36;;;;;;;0.67;0.57;;;20.10;99.90;;;;;;5053450;28;20326;-81
2021/06/04 04:49:03;;;;;;;0.87;0.50;;;20.00;99.90;;;;;;5053422;28;20686;-81
2021/06/04 04:51:33;;;;;;;0.53;0.37;;;20.10;99.90;;;;;;5050742;28;20189;-81
2021/06/04 04:53:58;;;;;;;0.60;0.60;;;20.30;99.90;;;;;;5053948;28;20574;-81
2021/06/04 04:56:24;;;;;;;0.60;0.47;;;20.30;99.90;;;;;;5046275;28;20186;-81
2021/06/04 04:58:50;;;;;;;0.43;0.43;;;20.10;99.90;;;;;;5054730;28;20574;-81
2021/06/04 05:01:17;;;;;;;0.40;0.40;;;20.00;99.90;;;;;;5049655;28;20206;-80
2021/06/04 05:03:42;;;;;;;0.50;0.50;;;20.00;99.90;;;;;;5035232;28;20626;-82
2021/06/04 05:06:09;;;;;;;1.97;0.90;;;19.70;99.90;;;;;;5049551;28;20232;-81
2021/06/04 05:08:35;;;;;;;0.27;0.27;;;19.70;99.90;;;;;;5048439;28;20194;-81
2021/06/04 05:11:01;;;;;;;0.40;0.40;;;20.00;99.90;;;;;;5054041;28;20244;-81
2021/06/04 05:13:27;;;;;;;0.40;0.40;;;20.10;99.90;;;;;;5052636;28;20193;-81
2021/06/04 05:15:52;;;;;;;1.13;0.83;;;20.10;99.90;;;;;;5056704;28;20579;-81
2021/06/04 05:18:19;;;;;;;0.40;0.40;;;20.10;99.90;;;;;;5060938;28;20367;-81
2021/06/04 05:20:47;;;;;;;5.07;0.60;;;20.40;99.90;;;;;;5051442;28;20208;-81
2021/06/04 05:23:15;;;;;;;0.50;0.33;;;20.80;99.90;;;;;;5051195;28;20182;-81
2021/06/04 05:25:45;;;;;;;0.57;0.57;;;20.90;99.90;;;;;;5053234;28;20249;-81
2021/06/04 05:28:14;;;;;;;0.40;0.40;;;20.90;99.90;;;;;;5043873;28;20177;-81
2021/06/04 05:30:43;;;;;;;0.77;0.70;;;20.50;99.90;;;;;;5051187;28;20979;-81
2021/06/04 05:33:12;;;;;;;0.70;0.57;;;20.40;99.90;;;;;;5052445;28;20586;-81
2021/06/04 05:35:38;;;;;;;0.47;0.47;;;20.40;99.90;;;;;;5050715;28;20298;-81
2021/06/04 05:38:04;;;;;;;0.30;0.30;;;20.50;99.90;;;;;;5042228;28;20210;-81
2021/06/04 05:40:37;;;;;;;2.30;0.63;;;20.80;99.90;;;;;;5039594;28;20689;-82
2021/06/04 05:43:06;;;;;;;0.50;0.37;;;21.10;99.90;;;;;;5044847;28;20214;-85
2021/06/04 05:45:36;;;;;;;0.40;0.40;;;21.20;99.90;;;;;;5033571;28;20186;-83
2021/06/04 05:48:02;;;;;;;0.87;0.50;;;21.10;99.90;;;;;;5049146;28;20677;-84
2021/06/04 05:50:38;;;;;;;0.60;0.60;;;21.20;99.90;;;;;;5058603;28;20213;-86
2021/06/04 05:53:06;;;;;;;0.80;0.70;;;21.00;99.90;;;;;;5058667;28;20284;-86
2021/06/04 05:55:33;;;;;;;0.30;0.30;;;21.20;99.90;;;;;;5046901;28;20186;-82
2021/06/04 05:58:00;;;;;;;0.40;0.40;;;21.60;99.90;;;;;;5049638;28;20205;-82
2021/06/04 06:00:33;;;;;;;0.50;0.50;;;21.70;99.90;;;;;;5042517;28;20202;-84
2021/06/04 06:02:59;;;;;;;1.37;0.53;;;21.60;99.90;;;;;;5047554;28;20658;-85
2021/06/04 06:05:26;;;;;;;0.30;0.30;;;21.50;99.90;;;;;;5049933;28;20178;-84
2021/06/04 06:07:52;;;;;;;0.70;0.70;;;21.70;99.90;;;;;;5045187;28;20189;-82
2021/06/04 06:10:18;;;;;;;1.17;0.60;;;21.60;99.90;;;;;;5049295;28;20205;-82
2021/06/04 06:12:43;;;;;;;1.07;0.63;;;22.10;99.90;;;;;;5047108;28;20186;-82
2021/06/04 06:15:09;;;;;;;0.30;0.30;;;21.80;99.90;;;;;;5050321;28;20301;-81
2021/06/04 06:17:36;;;;;;;0.40;0.40;;;21.90;99.90;;;;;;5045416;28;20215;-81
2021/06/04 06:20:05;;;;;;;0.27;0.27;;;22.30;99.90;;;;;;5040052;28;20236;-81
2021/06/04 06:22:31;;;;;;;0.37;0.37;;;22.20;99.90;;;;;;5055362;28;20231;-80
2021/06/04 06:24:56;;;;;;;0.57;0.57;;;22.10;99.90;;;;;;5058236;28;20189;-82
2021/06/04 06:27:22;;;;;;;0.37;0.37;;;21.90;99.90;;;;;;5050124;28;20186;-81
2021/06/04 06:29:49;;;;;;;0.30;0.30;;;22.00;99.90;;;;;;5044303;28;20216;-81
2021/06/04 06:32:20;;;;;;;0.33;0.33;;;22.40;99.90;;;;;;5059562;28;20197;-82
2021/06/04 06:34:46;;;;;;;0.67;0.67;;;22.50;99.90;;;;;;5058373;28;20185;-82
2021/06/04 06:37:11;;;;;;;0.37;0.33;;;22.20;99.90;;;;;;5049526;28;20661;-81
2021/06/04 06:39:37;;;;;;;0.30;0.30;;;22.50;99.90;;;;;;5048416;28;20209;-82
2021/06/04 06:42:05;;;;;;;0.50;0.50;;;22.20;99.90;;;;;;5058155;28;20768;-81
2021/06/04 06:44:32;;;;;;;0.63;0.50;;;21.90;99.90;;;;;;5048465;28;20257;-81
2021/06/04 06:46:59;;;;;;;0.50;0.50;;;21.90;99.90;;;;;;5058257;28;20208;-82
2021/06/04 06:49:26;;;;;;;0.40;0.40;;;21.90;99.90;;;;;;5058067;28;20685;-81
2021/06/04 06:51:51;;;;;;;0.23;0.23;;;22.00;99.90;;;;;;5050832;28;20290;-80
2021/06/04 06:54:22;;;;;;;0.30;0.30;;;22.60;99.90;;;;;;5048879;28;20682;-82
2021/06/04 06:56:51;;;;;;;0.50;0.50;;;23.20;99.90;;;;;;5050901;28;20192;-81
2021/06/04 06:59:18;;;;;;;0.50;0.50;;;23.30;99.90;;;;;;5052360;28;20211;-81
2021/06/04 07:01:43;;;;;;;0.20;0.20;;;23.60;99.90;;;;;;5049964;28;20283;-81
2021/06/04 07:04:09;;;;;;;0.40;0.40;;;23.90;99.90;;;;;;5054236;28;20815;-81
2021/06/04 07:06:38;;;;;;;0.30;0.30;;;24.00;99.90;;;;;;5061303;28;20209;-82
2021/06/04 07:09:10;;;;;;;0.60;0.60;;;24.20;99.90;;;;;;5049657;28;20217;-81
2021/06/04 07:11:39;;;;;;;0.40;0.40;;;24.30;99.90;;;;;;5047983;28;20193;-81
2021/06/04 07:14:06;;;;;;;0.40;0.40;;;24.40;99.90;;;;;;5050930;28;20191;-81
2021/06/04 07:16:32;;;;;;;0.30;0.30;;;24.40;99.90;;;;;;5071194;28;20181;-80
2021/06/04 07:18:58;;;;;;;0.37;0.37;;;24.70;99.90;;;;;;5058334;28;20221;-81
2021/06/04 07:21:25;;;;;;;0.83;0.83;;;24.30;99.90;;;;;;5060698;28;20185;-82
2021/06/04 07:23:53;;;;;;;0.40;0.40;;;24.50;99.90;;;;;;5063327;28;20646;-81
2021/06/04 07:26:19;;;;;;;4.60;1.13;;;24.20;99.90;;;;;;5051061;28;20213;-81
2021/06/04 07:28:45;;;;;;;0.43;0.43;;;24.10;99.90;;;;;;5041528;28;20216;-81
2021/06/04 07:31:13;;;;;;;1.40;0.50;;;24.30;99.90;;;;;;5023783;28;20204;-81
2021/06/04 07:33:46;;;;;;;0.60;0.50;;;24.70;99.90;;;;;;5050837;28;20313;-83
2021/06/04 07:36:17;;;;;;;1.70;0.87;;;24.70;99.90;;;;;;5041583;28;20181;-83
2021/06/04 07:38:44;;;;;;;1.27;1.20;;;24.80;99.90;;;;;;5042798;28;20686;-81
2021/06/04 07:41:10;;;;;;;0.67;0.60;;;24.80;99.90;;;;;;5050036;28;20189;-82
2021/06/04 07:43:39;;;;;;;1.90;0.73;;;23.90;99.90;;;;;;5045067;28;20186;-82
2021/06/04 07:46:07;;;;;;;0.50;0.50;;;24.20;99.90;;;;;;5052946;28;20182;-82
2021/06/04 07:48:33;;;;;;;0.50;0.50;;;24.60;99.90;;;;;;5052833;28;20194;-82
2021/06/04 07:50:58;;;;;;;0.57;0.57;;;25.00;99.90;;;;;;5052755;28;20668;-82
2021/06/04 07:53:28;;;;;;;0.30;0.30;;;25.10;99.90;;;;;;5052279;28;20200;-82
2021/06/04 07:55:53;;;;;;;0.57;0.40;;;25.40;99.90;;;;;;5049509;28;20189;-82
2021/06/04 07:58:20;;;;;;;0.57;0.57;;;25.20;99.90;;;;;;5052459;28;20206;-81
2021/06/04 08:00:46;;;;;;;0.30;0.30;;;25.40;99.90;;;;;;5053015;28;20190;-82
2021/06/04 08:03:13;;;;;;;4.83;1.30;;;25.20;99.90;;;;;;5053942;28;20251;-82
2021/06/04 08:05:39;;;;;;;1.90;1.20;;;25.00;99.90;;;;;;5053770;28;20213;-82
2021/06/04 08:08:08;;;;;;;0.43;0.40;;;24.90;99.90;;;;;;5052485;28;20222;-82
2021/06/04 08:10:35;;;;;;;0.80;0.53;;;24.60;99.90;;;;;;5052442;28;20205;-82
2021/06/04 08:13:02;;;;;;;0.40;0.40;;;25.20;99.90;;;;;;5052255;28;20751;-82
2021/06/04 08:15:35;;;;;;;1.47;0.60;;;25.20;99.90;;;;;;5052378;28;20186;-82
2021/06/04 08:18:00;;;;;;;0.40;0.40;;;25.10;99.90;;;;;;5048998;28;20279;-82
2021/06/04 08:20:30;;;;;;;0.33;0.33;;;25.50;99.90;;;;;;5048319;28;20218;-83
2021/06/04 08:22:59;;;;;;;0.37;0.37;;;25.90;99.90;;;;;;5053641;28;20200;-82
2021/06/04 08:25:28;;;;;;;0.23;0.23;;;26.30;99.90;;;;;;5051754;28;20220;-83
2021/06/04 08:27:54;;;;;;;0.53;0.53;;;26.50;99.90;;;;;;5052222;28;20190;-82
2021/06/04 08:30:21;;;;;;;1.60;0.97;;;25.50;99.90;;;;;;5052318;28;20287;-81
2021/06/04 08:32:48;;;;;;;0.47;0.47;;;25.90;99.90;;;;;;5051340;28;20538;-84
2021/06/04 08:35:14;;;;;;;0.57;0.57;;;25.20;99.90;;;;;;5039454;28;20197;-83
2021/06/04 08:37:40;;;;;;;0.77;0.77;;;24.80;99.90;;;;;;5051378;28;20216;-83
2021/06/04 08:40:19;;;;;;;1.07;1.03;;;24.60;99.90;;;;;;5038254;28;20287;-82
2021/06/04 08:42:51;;;;;;;0.50;0.50;;;24.60;99.90;;;;;;5048558;28;20190;-83
2021/06/04 08:45:34;;;;;;;0.30;0.30;;;25.60;99.90;;;;;;5044906;28;20201;-83
2021/06/04 08:48:17;;;;;;;0.10;0.10;;;25.90;99.90;;;;;;5050732;28;20768;-84
2021/06/04 08:51:15;;;;;;;0.40;0.40;;;26.20;99.90;;;;;;5045418;28;20285;-81
2021/06/04 08:53:50;;;;;;;0.20;0.20;;;26.50;99.90;;;;;;5039930;28;20178;-83
2021/06/04 08:56:25;;;;;;;0.57;0.57;;;26.80;99.90;;;;;;5040847;28;20182;-83
2021/06/04 08:59:12;;;;;;;0.80;0.60;;;26.60;99.90;;;;;;5041528;28;20220;-83
2021/06/04 09:01:55;;;;;;;0.50;0.50;;;27.10;99.90;;;;;;5046895;28;20673;-83
2021/06/04 09:04:43;;;;;;;0.40;0.40;;;27.50;99.90;;;;;;5038229;28;20184;-83
2021/06/04 09:07:14;;;;;;;0.43;0.43;;;27.70;99.90;;;;;;5032501;28;20638;-85
2021/06/04 09:09:45;;;;;;;0.63;0.40;;;28.00;99.90;;;;;;5046031;28;20194;-82
2021/06/04 09:12:23;;;;;;;0.30;0.30;;;28.00;99.90;;;;;;5045510;28;20174;-82
2021/06/04 09:14:52;;;;;;;0.30;0.30;;;28.30;99.90;;;;;;5037522;28;20205;-83
2021/06/04 09:17:50;;;;;;;1.37;0.50;;;28.00;99.90;;;;;;5038406;28;20717;-82
2021/06/04 09:20:29;;;;;;;0.30;0.30;;;27.90;99.90;;;;;;5025563;28;20232;-82
2021/06/04 09:23:00;;;;;;;0.30;0.30;;;27.90;99.90;;;;;;5047195;28;20276;-83
2021/06/04 09:25:27;;;;;;;0.37;0.37;;;28.10;99.90;;;;;;5048945;28;20173;-83
2021/06/04 09:28:27;;;;;;;0.70;0.40;;;28.10;99.90;;;;;;5038165;28;20216;-82
2021/06/04 09:31:27;;;;;;;0.25;0.25;;;28.50;99.90;;;;;;5035566;28;20198;-81
2021/06/04 09:33:56;;;;;;;0.68;0.68;;;29.00;99.90;;;;;;5047449;28;20270;-81
2021/06/04 09:36:41;;;;;;;0.57;0.57;;;29.30;99.90;;;;;;5046167;28;20217;-86
2021/06/04 09:39:07;;;;;;;0.30;0.30;;;29.50;99.90;;;;;;5046414;28;20235;-83
2021/06/04 09:41:40;;;;;;;0.85;0.50;;;29.50;99.90;;;;;;5047828;28;20181;-81
2021/06/04 09:44:18;;;;;;;0.55;0.40;;;29.70;99.90;;;;;;5021963;28;20174;-81
2021/06/04 09:47:01;;;;;;;1.05;0.63;;;29.40;99.90;;;;;;5021517;28;20189;-82
2021/06/04 09:49:45;;;;;;;0.65;0.65;;;29.70;99.90;;;;;;5039248;28;20713;-83
2021/06/04 09:52:20;;;;;;;0.63;0.40;;;30.20;99.90;;;;;;5040343;28;20272;-83
2021/06/04 09:54:46;;;;;;;1.23;0.80;;;30.50;99.90;;;;;;5047765;28;20193;-83
2021/06/04 09:57:16;;;;;;;0.70;0.70;;;30.60;99.90;;;;;;5046610;28;20561;-83
2021/06/04 09:59:42;;;;;;;1.20;0.50;;;30.70;99.90;;;;;;5045271;28;20259;-83
2021/06/04 10:02:30;;;;;;;0.60;0.60;;;30.90;99.90;;;;;;5048503;28;20189;-84
2021/06/04 10:05:11;;;;;;;0.30;0.30;;;31.00;99.90;;;;;;5045364;28;20265;-82
2021/06/04 10:07:37;;;;;;;0.35;0.35;;;31.20;99.90;;;;;;5047955;28;20192;-83
2021/06/04 10:10:11;;;;;;;0.60;0.60;;;31.10;99.90;;;;;;5047574;28;20209;-83
2021/06/04 10:12:41;;;;;;;0.90;0.80;;;29.90;99.90;;;;;;5049530;28;20250;-83
2021/06/04 10:15:29;;;;;;;0.30;0.30;;;29.60;99.90;;;;;;5048175;28;20181;-81
2021/06/04 10:20:23;;;;;;;1.27;0.65;;;30.00;99.90;;;;;;5045018;28;20212;-83
2021/06/04 10:22:53;;;;;;;0.82;0.47;;;29.70;99.90;;;;;;5043009;28;20181;-83
2021/06/04 10:25:23;;;;;;;0.55;0.55;;;29.30;99.90;;;;;;5045327;28;20569;-81
2021/06/04 10:27:53;;;;;;;2.33;1.00;;;28.20;99.90;;;;;;5048886;28;20182;-83
2021/06/04 10:30:40;;;;;;;2.90;1.50;;;28.20;99.90;;;;;;5049768;28;20582;-83
2021/06/04 10:33:08;;;;;;;0.45;0.45;;;28.30;99.90;;;;;;5039163;28;20258;-83
2021/06/04 10:35:57;;;;;;;1.27;1.15;;;29.10;99.90;;;;;;5043327;28;20285;-81
2021/06/04 10:38:37;;;;;;;0.52;0.52;;;29.50;99.90;;;;;;5049550;28;20603;-83
2021/06/04 10:41:10;;;;;;;2.90;0.70;;;29.80;99.90;;;;;;5043639;28;20281;-82
2021/06/04 10:44:05;;;;;;;1.17;1.08;;;29.80;99.90;;;;;;5048269;28;20271;-83
2021/06/04 10:46:40;;;;;;;0.70;0.60;;;29.60;99.90;;;;;;5045488;28;20186;-83
2021/06/04 10:49:43;;;;;;;0.55;0.47;;;29.30;99.90;;;;;;5050771;28;20227;-83
2021/06/04 10:52:28;;;;;;;0.75;0.60;;;30.00;99.90;;;;;;5051725;28;20193;-82
2021/06/04 10:55:22;;;;;;;0.73;0.60;;;30.30;99.90;;;;;;5041442;28;20727;-83
2021/06/04 10:58:18;;;;;;;0.40;0.40;;;30.30;99.90;;;;;;5028767;28;20570;-83
2021/06/04 11:00:55;;;;;;;0.50;0.50;;;30.40;99.90;;;;;;5043333;28;20573;-83
2021/06/04 11:03:50;;;;;;;1.05;0.95;;;30.60;99.90;;;;;;5053400;28;20178;-83
2021/06/04 11:06:24;;;;;;;0.65;0.65;;;30.40;99.90;;;;;;5048825;28;20734;-83
2021/06/04 11:09:09;;;;;;;0.93;0.93;;;30.70;99.90;;;;;;5042915;28;20212;-83
2021/06/04 11:12:01;;;;;;;0.75;0.75;;;31.10;99.90;;;;;;5052010;28;20177;-82
2021/06/04 11:14:42;;;;;;;1.05;0.95;;;31.00;99.90;;;;;;5049221;28;20197;-83
2021/06/04 11:17:23;;;;;;;0.85;0.70;;;30.40;99.90;;;;;;5060159;28;20591;-83
2021/06/04 11:20:10;;;;;;;0.80;0.80;;;30.80;99.90;;;;;;5048456;28;20595;-82
2021/06/04 11:22:46;;;;;;;0.57;0.57;;;30.80;99.90;;;;;;5045218;28;20635;-82
2021/06/04 11:25:42;;;;;;;0.68;0.68;;;31.00;99.90;;;;;;5046061;28;20182;-83
2021/06/04 11:28:29;;;;;;;0.50;0.50;;;30.80;99.90;;;;;;5050088;28;20360;-83
2021/06/04 11:30:58;;;;;;;1.08;0.98;;;31.40;99.90;;;;;;5045067;28;20186;-82
2021/06/04 11:33:30;;;;;;;0.50;0.50;;;31.40;99.90;;;;;;5043339;28;20178;-82
2021/06/04 11:36:13;;;;;;;0.47;0.47;;;31.30;99.90;;;;;;5042424;28;20689;-82
2021/06/04 11:38:53;;;;;;;0.90;0.90;;;31.10;99.90;;;;;;5042961;28;20213;-83
2021/06/04 11:41:46;;;;;;;0.50;0.50;;;31.70;99.90;;;;;;5045567;28;20188;-83
2021/06/04 11:44:34;;;;;;;0.85;0.65;;;31.40;99.90;;;;;;5046184;28;20178;-83
2021/06/04 11:47:20;;;;;;;0.30;0.30;;;31.30;99.90;;;;;;5043505;28;20281;-83
2021/06/04 11:49:55;;;;;;;0.88;0.73;;;31.20;99.90;;;;;;5043844;28;20213;-83
2021/06/04 11:52:36;;;;;;;0.55;0.55;;;31.10;99.90;;;;;;5044018;28;20192;-83
2021/06/04 11:55:34;;;;;;;0.82;0.70;;;31.20;99.90;;;;;;5045921;28;20663;-83
2021/06/04 11:58:00;;;;;;;0.75;0.75;;;31.10;99.90;;;;;;5043408;28;20213;-83
2021/06/04 12:00:26;;;;;;;0.68;0.65;;;30.20;99.90;;;;;;5045047;28;20201;-82
2021/06/04 12:02:54;;;;;;;0.55;0.55;;;29.90;99.90;;;;;;5051735;28;20642;-82
2021/06/04 12:05:19;;;;;;;1.00;0.88;;;30.30;99.90;;;;;;5048678;28;20273;-85
2021/06/04 12:08:06;;;;;;;0.40;0.40;;;31.10;99.90;;;;;;5055972;28;20276;-83
2021/06/04 12:10:53;;;;;;;0.55;0.43;;;31.50;99.90;;;;;;5053762;28;20237;-83
2021/06/04 12:13:44;;;;;;;0.57;0.57;;;31.80;99.90;;;;;;5042813;28;20261;-83
2021/06/04 12:19:14;;;;;;;0.60;0.60;;;31.90;99.90;;;;;;5051807;28;20209;-83
2021/06/04 12:21:40;;;;;;;0.70;0.70;;;31.80;99.90;;;;;;5043275;28;20185;-83
2021/06/04 12:24:06;;;;;;;1.20;0.88;;;31.10;99.90;;;;;;5050524;28;20189;-84
2021/06/04 12:26:39;;;;;;;0.60;0.60;;;31.20;99.90;;;;;;5050758;28;20212;-83
2021/06/04 12:29:20;;;;;;;0.47;0.47;;;31.70;99.90;;;;;;5051255;28;20221;-83
2021/06/04 12:31:58;;;;;;;0.55;0.55;;;31.50;99.90;;;;;;5050895;28;20224;-83
2021/06/04 12:34:36;;;;;;;1.25;0.90;;;31.40;99.90;;;;;;5046627;28;20658;-83
2021/06/04 12:37:09;;;;;;;0.60;0.60;;;31.10;99.90;;;;;;5051191;28;20178;-83
2021/06/04 12:39:43;;;;;;;1.73;1.63;;;31.40;99.90;;;;;;5045092;28;20210;-83
2021/06/04 12:42:24;;;;;;;0.47;0.47;;;32.10;99.90;;;;;;5042006;28;20766;-82
2021/06/04 12:45:08;;;;;;;0.95;0.77;;;32.40;99.90;;;;;;5047888;28;20225;-84
2021/06/04 12:47:37;;;;;;;1.00;0.90;;;32.70;99.90;;;;;;5050720;28;20189;-84
2021/06/04 12:50:09;;;;;;;1.35;0.80;;;31.30;99.90;;;;;;5052048;28;20722;-81
2021/06/04 12:52:34;;;;;;;1.08;1.08;;;31.20;99.90;;;;;;5051146;28;20227;-83
2021/06/04 12:55:30;;;;;;;1.08;0.73;;;31.80;99.90;;;;;;5051121;28;20613;-84
2021/06/04 12:58:18;;;;;;;1.15;0.93;;;32.10;99.90;;;;;;5050317;28;20396;-81
2021/06/04 13:00:44;;;;;;;0.90;0.90;;;31.80;99.90;;;;;;5049909;28;20202;-83
2021/06/04 13:03:30;;;;;;;1.52;1.42;;;32.10;99.90;;;;;;5049390;28;20267;-84
2021/06/04 13:05:58;;;;;;;0.57;0.50;;;32.00;99.90;;;;;;5052367;28;20182;-83
2021/06/04 13:08:35;;;;;;;0.82;0.70;;;31.70;99.90;;;;;;5049394;28;20186;-83
2021/06/04 13:11:03;;;;;;;0.50;0.50;;;31.40;99.90;;;;;;5049390;28;20186;-82
2021/06/04 13:13:32;;;;;;;1.20;1.10;;;31.40;99.90;;;;;;5050083;28;20228;-83
2021/06/04 13:16:17;;;;;;;1.17;1.08;;;31.00;99.90;;;;;;5049400;28;20192;-83
2021/06/04 13:18:43;;;;;;;0.68;0.68;;;30.30;99.90;;;;;;5034719;28;20693;-83
2021/06/04 13:21:15;;;;;;;0.60;0.60;;;30.40;99.90;;;;;;5050683;28;20192;-83